CheckWX is a tool to help pilots better visualize weather data.  It is not intended as a substitute for an official pre-flight weather briefing.

18:33:02 UTC

KFWN METAR
Sussex Airport
Sussex, New Jersey, USA
Current

40 mins ago

KFWN 221753Z AUTO 01006KT 10SM FEW043 05/M05 A3035 RMK AO2 SLP279 T00501050 10050 20022 58004
Observed
Feb-22 @ 17:53 UTC
Wind
  • 010° at 6 KTS
Visibility
10 SM
Flight Rules
VFR
Cloud Levels
  • Few at 4,300' AGL
Temperature
C / 41°F
Dewpoint
-5°C / 23°F
Humidity
49%
Altimeter
30.35" Hg
Pressure
1027.9 hPa
Previous

2 hours ago

KFWN 221653Z AUTO VRB05KT 10SM CLR 04/M04 A3037 RMK AO2 SLP287 T00441044
Observed
Feb-22 @ 16:53 UTC
Wind
  • Variable at 5 KTS
Visibility
10 SM
Flight Rules
VFR
Cloud Levels
  • Clear skies
Temperature
C / 39°F
Dewpoint
-4°C / 25°F
Humidity
56%
Altimeter
30.37" Hg
Pressure
1028.7 hPa
Previous

3 hours ago

KFWN 221553Z AUTO VRB04KT 10SM CLR 04/M05 A3038 RMK AO2 SLP291 T00391050
Observed
Feb-22 @ 15:53 UTC
Wind
  • Variable at 4 KTS
Visibility
10 SM
Flight Rules
VFR
Cloud Levels
  • Clear skies
Temperature
C / 39°F
Dewpoint
-5°C / 23°F
Humidity
52%
Altimeter
30.38" Hg
Pressure
1029.1 hPa